Time;durP1;ratioP1;P1;durP2;ratioP2;P2;SDS_P1;SDS_P2;PMS_P1;PMS_P2;Temp;Humidity;BMP_temperature;BMP_pressure;BME280_temperature;BME280_humidity;BME280_pressure;Samples;Min_cycle;Max_cycle;Signal;HPM_P1;HPM_P2
2023/04/08 00:01:14;;;;;;;20.40;12.40;;;;;;;4.21;87.22;100247.17;218168;1257;140094;-65
2023/04/08 00:06:19;;;;;;;18.40;12.80;;;;;;;4.16;87.33;100254.70;217935;1257;139417;-66
2023/04/08 00:11:24;;;;;;;17.00;11.00;;;;;;;4.14;87.31;100253.35;217994;1257;140293;-66
2023/04/08 00:16:30;;;;;;;24.10;14.00;;;;;;;4.10;87.19;100258.34;218055;1256;139777;-67
2023/04/08 00:21:36;;;;;;;24.70;14.70;;;;;;;4.06;87.59;100265.73;217945;1257;160271;-66
2023/04/08 00:26:41;;;;;;;21.20;13.50;;;;;;;4.06;87.36;100272.95;218125;1257;139268;-68
2023/04/08 00:31:46;;;;;;;15.50;10.00;;;;;;;4.06;87.50;100272.66;218172;1257;140482;-65
2023/04/08 00:36:50;;;;;;;29.90;15.40;;;;;;;4.06;87.43;100265.96;218260;1259;140137;-66
2023/04/08 00:41:56;;;;;;;33.70;15.00;;;;;;;3.99;87.20;100272.92;218703;1256;139485;-65
2023/04/08 00:47:04;;;;;;;25.10;14.70;;;;;;;3.95;87.17;100272.02;218483;1257;140914;-64
2023/04/08 00:52:09;;;;;;;19.50;12.40;;;;;;;3.93;87.15;100269.98;219135;1256;140113;-66
2023/04/08 00:57:14;;;;;;;20.50;11.40;;;;;;;3.91;86.99;100277.39;219375;1259;139691;-66
2023/04/08 01:02:42;;;;;;;20.60;12.30;;;;;;;3.90;86.99;100280.83;219052;1256;139753;-66
2023/04/08 01:07:49;;;;;;;17.30;11.80;;;;;;;3.89;86.79;100283.48;220417;1256;139623;-67
2023/04/08 01:12:55;;;;;;;18.20;11.30;;;;;;;3.86;86.74;100288.17;220452;1257;140171;-67
2023/04/08 01:18:06;;;;;;;19.50;12.20;;;;;;;3.84;86.77;100290.56;220045;1257;140059;-67
2023/04/08 01:24:04;;;;;;;20.30;12.60;;;;;;;3.83;86.34;100291.90;220617;1259;141600;-66
2023/04/08 01:29:11;;;;;;;18.70;12.10;;;;;;;3.79;86.40;100294.78;219670;1256;140201;-66
2023/04/08 01:34:18;;;;;;;18.00;10.30;;;;;;;3.77;86.58;100295.92;220526;1256;140252;-67
2023/04/08 01:39:25;;;;;;;18.20;10.80;;;;;;;3.78;86.59;100299.35;220041;1256;139517;-66
2023/04/08 01:44:32;;;;;;;15.80;10.10;;;;;;;3.78;86.59;100302.52;218062;1259;141296;-66
2023/04/08 01:49:38;;;;;;;15.20;11.80;;;;;;;3.79;86.47;100311.70;219598;1259;139448;-66
2023/04/08 01:54:43;;;;;;;20.90;13.80;;;;;;;3.79;86.63;100316.61;217790;1257;139762;-66
2023/04/08 01:59:51;;;;;;;19.10;14.70;;;;;;;3.81;86.78;100319.49;217888;1256;142167;-67
2023/04/08 02:04:55;;;;;;;16.20;11.10;;;;;;;3.85;86.69;100321.71;218237;1257;139752;-67
2023/04/08 02:10:00;;;;;;;19.00;12.10;;;;;;;3.80;86.51;100321.61;218223;1259;141345;-67
2023/04/08 02:15:07;;;;;;;24.10;14.10;;;;;;;3.74;86.70;100320.30;218025;1258;139777;-65
2023/04/08 02:20:47;;;;;;;21.70;14.90;;;;;;;3.74;86.78;100328.04;218388;1256;139882;-67
2023/04/08 02:25:54;;;;;;;18.00;12.40;;;;;;;3.72;86.60;100327.36;217861;1259;139544;-67
2023/04/08 02:31:02;;;;;;;15.00;9.00;;;;;;;3.74;86.70;100329.13;218307;1259;141009;-66
2023/04/08 02:36:08;;;;;;;;;;;;;;;3.76;86.68;100332.66;218916;1256;139982;-65
2023/04/08 02:41:12;;;;;;;18.50;11.10;;;;;;;3.74;86.67;100341.23;219014;1257;125950;-64
2023/04/08 02:46:17;;;;;;;19.50;12.40;;;;;;;3.79;86.71;100340.88;218812;1259;139537;-64
2023/04/08 02:51:22;;;;;;;20.30;12.30;;;;;;;3.83;86.71;100348.46;219085;1257;139537;-65
2023/04/08 02:56:27;;;;;;;18.20;12.30;;;;;;;3.90;86.66;100352.77;219135;1259;140129;-65
2023/04/08 03:01:31;;;;;;;20.10;12.50;;;;;;;3.94;86.47;100354.95;220247;1256;140294;-65
2023/04/08 03:06:37;;;;;;;21.10;13.00;;;;;;;4.00;86.49;100357.60;218723;1258;140335;-66
2023/04/08 03:11:41;;;;;;;16.60;11.90;;;;;;;4.04;86.25;100359.53;220290;1257;139426;-66
2023/04/08 03:16:45;;;;;;;20.40;12.00;;;;;;;4.11;86.24;100361.99;220641;1260;140219;-65
2023/04/08 03:21:49;;;;;;;16.70;11.30;;;;;;;4.18;86.33;100361.52;220057;1257;140300;-66
2023/04/08 03:26:54;;;;;;;18.00;11.70;;;;;;;4.24;85.94;100365.55;219973;1258;139843;-65
2023/04/08 03:31:58;;;;;;;13.60;10.00;;;;;;;4.23;85.64;100368.97;219266;1259;139779;-64
2023/04/08 03:37:03;;;;;;;17.70;12.10;;;;;;;4.20;85.45;100377.98;218700;1259;140039;-64
2023/04/08 03:42:09;;;;;;;12.30;10.10;;;;;;;4.21;86.01;100388.60;219094;1259;139323;-63
2023/04/08 03:47:14;;;;;;;16.60;12.80;;;;;;;4.15;85.17;100387.65;217915;1260;140019;-64
2023/04/08 03:52:18;;;;;;;21.60;13.60;;;;;;;4.11;85.68;100395.49;218238;1257;140038;-64
2023/04/08 03:57:24;;;;;;;20.60;12.60;;;;;;;4.14;85.58;100395.41;218269;1257;139834;-64
2023/04/08 04:02:29;;;;;;;17.30;11.50;;;;;;;4.13;85.56;100404.98;218434;1256;140249;-66
2023/04/08 04:07:34;;;;;;;18.60;11.60;;;;;;;4.11;85.47;100410.48;218077;1258;140355;-65
2023/04/08 04:12:39;;;;;;;14.20;10.40;;;;;;;4.12;85.52;100419.17;218061;1258;139454;-65
2023/04/08 04:17:47;;;;;;;21.60;12.70;;;;;;;4.13;85.26;100427.55;218393;1259;139441;-63
2023/04/08 04:22:51;;;;;;;16.50;11.10;;;;;;;4.10;85.20;100439.23;218954;1257;140419;-65
2023/04/08 04:27:57;;;;;;;22.60;14.10;;;;;;;4.06;85.13;100442.16;218665;1257;139932;-64
2023/04/08 04:33:03;;;;;;;14.70;10.70;;;;;;;4.05;84.92;100446.13;218766;1257;139870;-66
2023/04/08 04:38:11;;;;;;;13.90;10.30;;;;;;;4.02;84.71;100454.79;219281;1256;139655;-64
2023/04/08 04:43:15;;;;;;;13.70;10.10;;;;;;;3.99;84.65;100465.84;219225;1258;140474;-63
2023/04/08 04:48:19;;;;;;;13.00;9.20;;;;;;;3.97;84.42;100470.52;219137;1256;139807;-65
2023/04/08 04:53:23;;;;;;;13.30;9.70;;;;;;;3.91;84.12;100477.48;219319;1256;139734;-64
2023/04/08 04:58:28;;;;;;;11.60;9.20;;;;;;;3.87;84.14;100485.88;219782;1258;139883;-65
2023/04/08 05:03:33;;;;;;;16.00;11.90;;;;;;;3.89;84.13;100492.86;219244;1255;139082;-65
2023/04/08 05:08:38;;;;;;;13.30;11.00;;;;;;;3.92;83.96;100493.38;220463;1256;141121;-66
2023/04/08 05:13:42;;;;;;;12.80;9.10;;;;;;;3.94;83.67;100503.59;219764;1257;140228;-66
2023/04/08 05:18:47;;;;;;;12.00;9.20;;;;;;;3.91;83.39;100505.64;219331;1256;140038;-66
2023/04/08 05:23:52;;;;;;;13.10;9.50;;;;;;;4.04;83.53;100498.86;219758;1257;139808;-66
2023/04/08 05:28:56;;;;;;;8.80;7.70;;;;;;;4.42;83.11;100496.45;218033;1257;139660;-64
2023/04/08 05:34:00;;;;;;;11.00;7.40;;;;;;;4.56;82.54;100488.30;219574;1256;139386;-66
2023/04/08 05:39:06;;;;;;;8.70;7.40;;;;;;;4.63;82.16;100486.20;218928;1257;141456;-66
2023/04/08 05:44:11;;;;;;;8.00;7.20;;;;;;;4.71;82.03;100483.24;218036;1257;139774;-65
2023/04/08 05:49:16;;;;;;;9.50;7.70;;;;;;;4.82;81.87;100477.94;218597;1257;230132;-66
2023/04/08 05:54:21;;;;;;;7.50;6.70;;;;;;;4.93;81.53;100484.15;217836;1258;139518;-66
2023/04/08 05:59:25;;;;;;;9.90;6.30;;;;;;;5.04;81.61;100491.86;218892;1256;140552;-65
2023/04/08 06:04:30;;;;;;;8.80;7.40;;;;;;;5.16;81.30;100495.71;217912;1257;139307;-65
2023/04/08 06:09:36;;;;;;;7.40;6.10;;;;;;;5.19;80.79;100495.88;217495;1260;139458;-66
2023/04/08 06:14:40;;;;;;;9.70;6.70;;;;;;;5.22;80.67;100501.50;218058;1257;141660;-64
2023/04/08 06:19:46;;;;;;;9.40;6.80;;;;;;;5.29;80.98;100505.92;218600;1256;140262;-66
2023/04/08 06:24:51;;;;;;;9.20;6.90;;;;;;;5.37;80.69;100507.39;217975;1256;139446;-65
2023/04/08 06:29:56;;;;;;;12.80;8.50;;;;;;;5.50;80.53;100509.11;218168;1257;140386;-65
2023/04/08 06:35:04;;;;;;;11.00;8.90;;;;;;;5.65;80.53;100512.03;219954;1256;140710;-65
2023/04/08 06:40:08;;;;;;;9.70;7.90;;;;;;;5.87;80.10;100511.17;218003;1257;140159;-63
2023/04/08 06:45:14;;;;;;;11.00;9.80;;;;;;;6.26;79.94;100513.84;219095;1257;139604;-65
2023/04/08 06:50:19;;;;;;;10.30;7.30;;;;;;;6.76;78.86;100524.92;219172;1256;139855;-69
2023/04/08 06:55:24;;;;;;;11.50;7.90;;;;;;;7.17;78.66;100526.11;219706;1257;140961;-64
2023/04/08 07:00:31;;;;;;;8.80;7.90;;;;;;;7.46;78.26;100524.86;220326;1256;140443;-67
2023/04/08 07:05:35;;;;;;;;;;;;;;;7.83;77.86;100527.92;220338;1257;140176;-66
2023/04/08 07:10:40;;;;;;;9.60;7.20;;;;;;;8.16;77.42;100533.48;220731;1256;127221;-65
2023/04/08 07:15:45;;;;;;;13.20;10.00;;;;;;;8.61;76.08;100536.44;218684;1256;140130;-66
2023/04/08 07:20:53;;;;;;;15.50;10.10;;;;;;;9.26;75.74;100543.31;219317;1256;141891;-66
2023/04/08 07:26:03;;;;;;;11.60;9.50;;;;;;;10.22;74.49;100547.92;219510;1256;140012;-68
2023/04/08 07:31:13;;;;;;;14.00;9.50;;;;;;;11.17;74.87;100543.72;217943;1257;139139;-68
2023/04/08 07:36:18;;;;;;;11.90;9.90;;;;;;;11.90;73.35;100551.99;218060;1256;139883;-65
2023/04/08 07:41:23;;;;;;;13.70;9.10;;;;;;;12.13;72.25;100552.89;219014;1256;139802;-66
2023/04/08 07:46:27;;;;;;;9.90;8.30;;;;;;;12.50;71.40;100552.71;218296;1256;139400;-67
2023/04/08 07:51:32;;;;;;;10.80;9.30;;;;;;;12.52;69.54;100554.73;218369;1256;138968;-66
2023/04/08 07:56:39;;;;;;;11.60;9.90;;;;;;;12.63;70.05;100557.02;217997;1256;140576;-66
2023/04/08 08:01:45;;;;;;;13.30;8.90;;;;;;;12.85;69.57;100556.64;217814;1259;140413;-66
2023/04/08 08:06:50;;;;;;;11.10;9.10;;;;;;;12.74;68.73;100560.40;218152;1259;140172;-66
2023/04/08 08:11:55;;;;;;;11.20;8.90;;;;;;;12.79;68.70;100558.11;217733;1257;139516;-64
2023/04/08 08:17:02;;;;;;;11.60;9.80;;;;;;;12.81;68.19;100561.73;218733;1259;141218;-68
2023/04/08 08:22:07;;;;;;;9.30;8.10;;;;;;;12.61;67.23;100566.30;217483;1256;138939;-69
2023/04/08 08:27:12;;;;;;;9.00;7.10;;;;;;;12.44;66.36;100568.36;218449;1256;138876;-64
2023/04/08 08:32:16;;;;;;;11.30;9.30;;;;;;;12.32;66.43;100572.05;218818;1256;140063;-64
2023/04/08 08:37:21;;;;;;;9.50;7.90;;;;;;;12.21;66.01;100574.05;218627;1256;139589;-66
2023/04/08 08:42:27;;;;;;;10.70;8.50;;;;;;;12.12;66.22;100570.66;218815;1256;138773;-67
2023/04/08 08:47:32;;;;;;;11.10;9.10;;;;;;;12.14;65.93;100570.48;218998;1256;141311;-68
2023/04/08 08:52:36;;;;;;;12.70;10.40;;;;;;;12.23;65.26;100576.08;220063;1256;552291;-69
2023/04/08 08:57:41;;;;;;;18.20;8.60;;;;;;;12.34;65.41;100573.22;218926;1255;142097;-67
2023/04/08 09:02:46;;;;;;;11.90;10.00;;;;;;;12.39;65.12;100580.80;220398;1256;139241;-73
2023/04/08 09:07:52;;;;;;;13.90;10.60;;;;;;;12.34;64.79;100589.21;219520;1256;139895;-68
2023/04/08 09:12:57;;;;;;;12.70;10.80;;;;;;;11.74;63.93;100596.44;219728;1256;140092;-68
2023/04/08 09:18:20;;;;;;;14.70;9.40;;;;;;;11.68;65.05;100602.17;219315;1256;139300;-66
2023/04/08 09:23:43;;;;;;;11.40;10.10;;;;;;;11.80;65.22;100607.29;219774;1256;139866;-68
2023/04/08 09:29:07;;;;;;;15.10;11.80;;;;;;;12.10;64.87;100609.38;219158;1256;139701;-69
2023/04/08 09:34:31;;;;;;;15.60;11.90;;;;;;;12.22;64.43;100615.03;219075;1256;139275;-65
2023/04/08 09:39:35;;;;;;;12.70;9.90;;;;;;;12.50;64.49;100616.62;218569;1256;140238;-70
2023/04/08 09:44:43;;;;;;;13.80;8.90;;;;;;;12.25;64.28;100616.72;218125;1256;139521;-68
2023/04/08 09:49:57;;;;;;;9.80;8.50;;;;;;;12.31;64.38;100612.62;217875;1259;140265;-69
2023/04/08 09:55:04;;;;;;;13.80;9.80;;;;;;;12.21;64.20;100617.52;218130;1256;138856;-70
2023/04/08 10:00:14;;;;;;;15.30;11.10;;;;;;;12.04;64.28;100616.59;217629;1257;140435;-69
2023/04/08 10:05:20;;;;;;;14.80;11.10;;;;;;;11.91;64.11;100613.81;217887;1256;140344;-69
2023/04/08 10:10:25;;;;;;;10.90;9.80;;;;;;;11.91;64.21;100611.23;218543;1257;139088;-66
2023/04/08 10:15:31;;;;;;;14.80;10.40;;;;;;;11.82;64.00;100615.52;218010;1257;139813;-67
2023/04/08 10:20:35;;;;;;;10.60;9.00;;;;;;;11.90;63.69;100614.58;218928;1256;139473;-66
2023/04/08 10:25:46;;;;;;;13.00;10.20;;;;;;;12.04;63.80;100614.17;218009;1256;139505;-67
2023/04/08 10:30:52;;;;;;;10.70;8.50;;;;;;;12.23;63.65;100614.52;218164;1255;139908;-68
2023/04/08 10:36:10;;;;;;;12.80;10.10;;;;;;;12.87;64.24;100608.97;218893;1256;139379;-76
2023/04/08 10:41:23;;;;;;;16.50;11.10;;;;;;;13.43;64.19;100606.96;218117;1256;139296;-70
2023/04/08 10:46:27;;;;;;;10.40;9.00;;;;;;;13.41;62.71;100605.90;217508;1259;140403;-71
2023/04/08 10:51:33;;;;;;;10.40;8.90;;;;;;;13.63;62.80;100604.48;217690;1255;141105;-67
2023/04/08 10:57:04;;;;;;;13.30;10.60;;;;;;;13.64;61.88;100606.02;220445;1256;139384;-69
2023/04/08 11:02:13;;;;;;;10.40;9.10;;;;;;;13.62;61.63;100599.63;220503;1256;139504;-71
2023/04/08 11:07:20;;;;;;;11.00;9.50;;;;;;;14.05;61.35;100599.80;218646;1256;140966;-74
2023/04/08 11:12:24;;;;;;;12.60;11.30;;;;;;;14.32;60.59;100598.61;218594;1259;139447;-74
2023/04/08 11:17:30;;;;;;;14.40;10.90;;;;;;;14.25;60.29;100600.98;219052;1256;140621;-75
2023/04/08 11:22:35;;;;;;;11.60;8.90;;;;;;;13.80;60.01;100597.36;218474;1259;139221;-74
2023/04/08 11:27:40;;;;;;;9.80;8.10;;;;;;;13.44;59.94;100602.02;217611;1256;139994;-67
2023/04/08 11:32:45;;;;;;;8.80;6.90;;;;;;;13.29;60.15;100602.18;217719;1256;139512;-77
2023/04/08 11:37:52;;;;;;;28.30;13.10;;;;;;;13.19;59.70;100596.90;217694;1259;139012;-74
2023/04/08 11:42:57;;;;;;;14.20;9.10;;;;;;;13.05;59.70;100599.86;217710;1259;140530;-67
2023/04/08 11:48:13;;;;;;;10.80;7.70;;;;;;;13.17;59.83;100600.67;218211;1256;139866;-69
2023/04/08 11:53:19;;;;;;;12.10;8.60;;;;;;;13.30;60.13;100598.46;217684;1256;139129;-69
2023/04/08 11:58:26;;;;;;;13.60;8.80;;;;;;;13.80;60.16;100594.52;217742;1256;139232;-69
2023/04/08 12:03:31;;;;;;;8.50;6.80;;;;;;;14.34;59.55;100588.34;217626;1259;139629;-69
2023/04/08 12:08:37;;;;;;;10.80;7.10;;;;;;;14.60;58.95;100580.23;218014;1257;139412;-68
2023/04/08 12:13:42;;;;;;;9.10;8.10;;;;;;;14.75;58.69;100582.65;218540;1256;139448;-68
2023/04/08 12:18:47;;;;;;;10.80;7.40;;;;;;;14.91;58.01;100581.60;217743;1256;138827;-67
2023/04/08 12:23:52;;;;;;;20.90;8.20;;;;;;;14.86;57.45;100579.30;217591;1259;140417;-69
2023/04/08 12:28:57;;;;;;;8.70;7.80;;;;;;;14.94;57.39;100581.98;217749;1256;139812;-70
2023/04/08 12:34:02;;;;;;;9.00;8.10;;;;;;;14.74;56.74;100579.25;217666;1256;139143;-67
2023/04/08 12:39:07;;;;;;;11.00;9.90;;;;;;;14.54;56.82;100579.96;217602;1259;139157;-69
2023/04/08 12:44:12;;;;;;;7.70;7.00;;;;;;;14.38;56.53;100580.66;218602;1256;139373;-68
2023/04/08 12:49:17;;;;;;;9.90;8.10;;;;;;;13.97;56.16;100584.05;219508;1256;138712;-70
2023/04/08 12:54:22;;;;;;;10.50;9.30;;;;;;;13.60;56.19;100582.94;220506;1256;235204;-71
2023/04/08 12:59:26;;;;;;;13.40;8.30;;;;;;;13.31;56.69;100577.55;220642;1256;139981;-67
2023/04/08 13:04:30;;;;;;;7.00;6.30;;;;;;;13.18;57.47;100573.39;219417;1256;140521;-66
2023/04/08 13:09:36;;;;;;;9.80;8.50;;;;;;;13.08;57.37;100572.71;217952;1256;139981;-70
2023/04/08 13:14:41;;;;;;;8.30;7.10;;;;;;;13.05;57.37;100570.70;217701;1256;139123;-71
2023/04/08 13:19:48;;;;;;;9.80;7.10;;;;;;;13.16;57.91;100560.52;218766;1259;139987;-72
2023/04/08 13:24:56;;;;;;;8.50;7.00;;;;;;;13.53;57.43;100555.56;217877;1257;139890;-69
2023/04/08 13:30:03;;;;;;;7.30;6.60;;;;;;;13.88;57.00;100552.39;218048;1256;139373;-70
2023/04/08 13:35:09;;;;;;;;;;;;;;;14.06;56.20;100551.53;217754;1256;140015;-69
2023/04/08 13:40:17;;;;;;;8.80;7.90;;;;;;;13.85;55.72;100547.77;219138;1256;127585;-70
2023/04/08 13:45:24;;;;;;;8.50;6.90;;;;;;;13.70;55.84;100550.96;217996;1256;139152;-73
2023/04/08 13:50:28;;;;;;;8.00;7.20;;;;;;;13.42;55.53;100552.30;218364;1256;140034;-68
2023/04/08 13:55:34;;;;;;;7.50;6.40;;;;;;;13.16;55.60;100551.30;217600;1259;140420;-70
2023/04/08 14:00:39;;;;;;;10.10;7.70;;;;;;;12.94;55.82;100549.64;217414;1257;150737;-65
2023/04/08 14:05:44;;;;;;;11.10;7.80;;;;;;;12.88;56.25;100543.12;218022;1256;139796;-68
2023/04/08 14:10:48;;;;;;;11.90;7.20;;;;;;;12.94;56.33;100544.93;217645;1259;139225;-69
2023/04/08 14:15:53;;;;;;;7.40;6.70;;;;;;;13.09;55.82;100539.42;217922;1257;139475;-65
2023/04/08 14:20:57;;;;;;;9.60;6.80;;;;;;;13.25;56.21;100544.58;217627;1257;141793;-70
2023/04/08 14:26:01;;;;;;;10.40;7.40;;;;;;;13.16;56.26;100546.49;217473;1257;141195;-70
2023/04/08 14:31:05;;;;;;;9.30;7.60;;;;;;;12.93;56.46;100544.96;217419;1259;139320;-72
2023/04/08 14:36:12;;;;;;;10.00;8.40;;;;;;;12.73;56.83;100538.92;217605;1259;139654;-67
2023/04/08 14:41:18;;;;;;;10.90;7.80;;;;;;;12.69;57.29;100533.67;218442;1255;139860;-71
2023/04/08 14:46:25;;;;;;;8.60;6.90;;;;;;;12.73;57.47;100530.50;220527;1256;139614;-69
2023/04/08 14:51:32;;;;;;;9.50;7.70;;;;;;;12.85;58.00;100532.40;217727;1259;139307;-71
2023/04/08 14:56:37;;;;;;;10.50;8.20;;;;;;;12.88;57.30;100535.52;218317;1257;139897;-68
2023/04/08 15:01:43;;;;;;;7.20;6.10;;;;;;;12.91;56.70;100526.51;217958;1256;139111;-68
2023/04/08 15:06:51;;;;;;;6.40;5.80;;;;;;;12.87;56.37;100524.83;217498;1257;139902;-69
2023/04/08 15:11:57;;;;;;;7.40;6.40;;;;;;;12.87;55.87;100527.46;218536;1259;139872;-67
2023/04/08 15:17:01;;;;;;;7.60;6.90;;;;;;;12.75;55.84;100523.34;217894;1256;138773;-65
2023/04/08 15:22:05;;;;;;;8.00;5.90;;;;;;;12.76;55.97;100521.11;217931;1259;139555;-68
2023/04/08 15:27:11;;;;;;;9.30;7.80;;;;;;;12.70;56.18;100522.55;217308;1259;140228;-68
2023/04/08 15:32:17;;;;;;;11.90;8.60;;;;;;;12.64;56.62;100520.16;217784;1256;139047;-68
2023/04/08 15:37:22;;;;;;;9.50;8.30;;;;;;;12.59;57.04;100524.20;217574;1256;140861;-68
2023/04/08 15:42:26;;;;;;;12.00;10.50;;;;;;;12.53;57.53;100524.73;218624;1257;139681;-71
2023/04/08 15:47:33;;;;;;;11.60;8.70;;;;;;;12.47;57.54;100526.31;217786;1259;140695;-69
2023/04/08 15:52:38;;;;;;;10.60;9.30;;;;;;;12.46;57.53;100530.64;217466;1259;140489;-70
2023/04/08 15:57:44;;;;;;;11.50;8.60;;;;;;;12.47;57.54;100528.62;217572;1259;139859;-71
2023/04/08 16:02:49;;;;;;;9.90;7.90;;;;;;;12.47;57.35;100526.60;218305;1256;139455;-74
2023/04/08 16:07:54;;;;;;;7.30;6.60;;;;;;;12.47;57.12;100530.06;219428;1256;139312;-69
2023/04/08 16:12:59;;;;;;;8.10;6.70;;;;;;;12.43;57.02;100534.67;217921;1259;139160;-68
2023/04/08 16:18:06;;;;;;;10.50;7.10;;;;;;;12.40;56.91;100537.80;218387;1259;141345;-71
2023/04/08 16:23:14;;;;;;;11.90;7.80;;;;;;;12.30;56.22;100539.96;219799;1256;139395;-66
2023/04/08 16:28:21;;;;;;;9.80;7.50;;;;;;;12.21;56.55;100544.52;218876;1256;139616;-70
2023/04/08 16:33:28;;;;;;;12.80;9.30;;;;;;;12.13;56.54;100547.63;220038;1258;140206;-68
2023/04/08 16:38:36;;;;;;;9.60;7.40;;;;;;;12.05;56.96;100548.91;220528;1256;141289;-80
2023/04/08 16:43:43;;;;;;;10.10;7.80;;;;;;;11.95;56.85;100550.96;218485;1257;140274;-71
2023/04/08 16:48:49;;;;;;;10.10;7.80;;;;;;;11.82;57.33;100554.49;217567;1256;139769;-72
2023/04/08 16:53:55;;;;;;;;;;;;;;;11.70;57.74;100556.19;218069;1259;140260;-71
2023/04/08 16:59:03;;;;;;;12.30;7.90;;;;;;;11.56;57.79;100558.28;217967;1259;126264;-69
2023/04/08 17:04:08;;;;;;;12.50;8.70;;;;;;;11.43;58.05;100565.75;218161;1256;141245;-71
2023/04/08 17:09:15;;;;;;;12.00;8.70;;;;;;;11.32;58.31;100567.29;217720;1257;139307;-66
2023/04/08 17:14:20;;;;;;;14.10;8.60;;;;;;;11.19;58.50;100569.52;217597;1256;139353;-69
2023/04/08 17:19:25;;;;;;;9.10;6.90;;;;;;;11.07;58.73;100570.33;217695;1256;140766;-69
2023/04/08 17:24:29;;;;;;;10.80;7.60;;;;;;;10.96;59.15;100574.66;217484;1260;139307;-71
2023/04/08 17:29:33;;;;;;;11.60;8.20;;;;;;;10.87;59.39;100577.75;218751;1257;139650;-67
2023/04/08 17:34:39;;;;;;;10.40;8.60;;;;;;;10.78;59.82;100581.13;218180;1257;139202;-68
2023/04/08 17:39:44;;;;;;;9.30;6.80;;;;;;;10.69;60.06;100586.48;218831;1256;139020;-66
2023/04/08 17:44:49;;;;;;;9.40;7.70;;;;;;;10.62;60.51;100590.84;217692;1259;138955;-71
2023/04/08 17:49:55;;;;;;;11.30;7.40;;;;;;;10.51;60.97;100592.73;217558;1257;140296;-71
2023/04/08 17:54:58;;;;;;;11.40;8.20;;;;;;;10.40;61.07;100602.27;217548;1256;139646;-72
2023/04/08 18:00:01;;;;;;;11.30;8.30;;;;;;;10.33;61.47;100605.18;218664;1255;141071;-70
2023/04/08 18:05:06;;;;;;;15.90;9.90;;;;;;;10.25;61.74;100606.89;218739;1256;139671;-70
2023/04/08 18:10:10;;;;;;;10.70;7.90;;;;;;;10.19;62.18;100609.23;217590;1257;140795;-71
2023/04/08 18:15:14;;;;;;;14.40;9.00;;;;;;;10.16;62.23;100616.63;217758;1256;139274;-69
2023/04/08 18:20:18;;;;;;;10.20;7.70;;;;;;;10.09;62.47;100619.45;218720;1257;140789;-70
2023/04/08 18:25:22;;;;;;;11.00;8.60;;;;;;;10.05;62.85;100615.84;218412;1256;139366;-70
2023/04/08 18:30:26;;;;;;;12.40;9.00;;;;;;;10.02;63.12;100614.77;220458;1257;141018;-71
2023/04/08 18:35:31;;;;;;;12.40;8.50;;;;;;;9.99;63.34;100615.77;220676;1256;139859;-77
2023/04/08 18:40:37;;;;;;;11.30;8.60;;;;;;;9.94;63.27;100621.02;220482;1259;139738;-70
2023/04/08 18:45:41;;;;;;;17.00;10.90;;;;;;;9.93;63.42;100620.36;217932;1256;138809;-74
2023/04/08 18:50:45;;;;;;;21.40;12.10;;;;;;;9.90;63.62;100622.29;218489;1257;139664;-72
2023/04/08 18:55:50;;;;;;;18.70;12.50;;;;;;;9.90;63.82;100623.06;218336;1259;142270;-71
2023/04/08 19:00:55;;;;;;;18.30;11.80;;;;;;;9.90;63.94;100620.95;217769;1259;140758;-70
2023/04/08 19:06:07;;;;;;;18.70;12.60;;;;;;;9.90;64.05;100622.09;218978;1257;140434;-70
2023/04/08 19:11:11;;;;;;;23.60;13.20;;;;;;;9.93;64.20;100623.73;217646;1257;139548;-73
2023/04/08 19:16:16;;;;;;;17.10;12.20;;;;;;;9.93;64.43;100622.58;217614;1257;143081;-73
2023/04/08 19:21:22;;;;;;;16.90;11.10;;;;;;;9.89;64.47;100616.77;217351;1259;140465;-69
2023/04/08 19:26:26;;;;;;;16.90;12.70;;;;;;;9.84;64.68;100614.02;217361;1259;140874;-69
2023/04/08 19:31:30;;;;;;;21.40;13.20;;;;;;;9.79;64.93;100618.83;217793;1257;139537;-68
2023/04/08 19:36:38;;;;;;;18.70;12.70;;;;;;;9.76;65.01;100620.41;218085;1257;211646;-68
2023/04/08 19:41:42;;;;;;;19.70;13.30;;;;;;;9.74;65.20;100618.05;217910;1259;140588;-68
2023/04/08 19:46:48;;;;;;;17.40;12.80;;;;;;;9.72;65.26;100618.53;218028;1256;141773;-67
2023/04/08 19:51:52;;;;;;;21.70;13.50;;;;;;;9.69;65.43;100619.14;217448;1257;139782;-67
2023/04/08 19:56:57;;;;;;;31.30;14.00;;;;;;;9.65;65.43;100620.58;218274;1259;142195;-69
2023/04/08 20:02:02;;;;;;;22.20;15.00;;;;;;;9.63;65.65;100618.37;217485;1257;140747;-72
2023/04/08 20:07:06;;;;;;;19.50;12.90;;;;;;;9.59;65.69;100622.23;218262;1258;140185;-72
2023/04/08 20:12:10;;;;;;;19.90;13.70;;;;;;;9.54;65.92;100621.11;217675;1259;140664;-72
2023/04/08 20:17:16;;;;;;;23.70;14.50;;;;;;;9.47;66.05;100617.90;217540;1260;140135;-71
2023/04/08 20:22:20;;;;;;;21.00;14.30;;;;;;;9.41;66.24;100615.29;217377;1256;141365;-69
2023/04/08 20:27:25;;;;;;;20.90;13.60;;;;;;;9.36;66.33;100616.31;217935;1257;139766;-67
2023/04/08 20:32:29;;;;;;;22.10;14.50;;;;;;;9.31;66.29;100620.68;218143;1259;139726;-65
2023/04/08 20:37:33;;;;;;;25.30;16.10;;;;;;;9.26;66.55;100617.69;218501;1259;140308;-78
2023/04/08 20:42:37;;;;;;;26.90;16.80;;;;;;;9.21;66.63;100624.03;217433;1260;139778;-77
2023/04/08 20:47:43;;;;;;;21.00;15.30;;;;;;;9.17;66.54;100621.42;217506;1258;141139;-75
2023/04/08 20:52:47;;;;;;;24.30;16.00;;;;;;;9.11;66.79;100625.35;217509;1257;239857;-76
2023/04/08 20:57:51;;;;;;;26.30;16.80;;;;;;;9.07;66.69;100631.89;217539;1260;140070;-72
2023/04/08 21:02:56;;;;;;;24.60;16.30;;;;;;;9.04;66.98;100628.70;217519;1257;140610;-66
2023/04/08 21:08:00;;;;;;;27.10;17.00;;;;;;;9.00;67.24;100630.33;217748;1257;140626;-66
2023/04/08 21:13:04;;;;;;;30.80;16.80;;;;;;;8.95;67.30;100636.27;217950;1257;142849;-65
2023/04/08 21:18:09;;;;;;;29.80;18.20;;;;;;;8.91;67.27;100638.11;218041;1260;139990;-67
2023/04/08 21:23:14;;;;;;;25.70;16.60;;;;;;;8.90;67.59;100644.12;218384;1259;141059;-72
2023/04/08 21:28:19;;;;;;;30.20;17.00;;;;;;;8.88;67.62;100639.38;218736;1256;139946;-67
2023/04/08 21:33:23;;;;;;;27.30;17.20;;;;;;;8.87;67.81;100646.90;217850;1258;140081;-68
2023/04/08 21:38:27;;;;;;;28.30;16.80;;;;;;;8.86;67.80;100653.29;218398;1258;139979;-68
2023/04/08 21:43:30;;;;;;;33.20;17.10;;;;;;;8.83;67.93;100654.10;217486;1257;140137;-66
2023/04/08 21:48:34;;;;;;;30.90;18.40;;;;;;;8.78;67.96;100659.16;219049;1257;141163;-68
2023/04/08 21:53:39;;;;;;;23.90;13.40;;;;;;;8.76;67.89;100659.44;219423;1257;140375;-67
2023/04/08 21:58:43;;;;;;;25.60;16.00;;;;;;;8.76;67.95;100663.33;218761;1257;140274;-68
2023/04/08 22:03:47;;;;;;;21.00;14.10;;;;;;;8.76;68.18;100667.74;220088;1257;140200;-70
2023/04/08 22:08:51;;;;;;;17.30;13.10;;;;;;;8.76;68.22;100665.62;217806;1257;140763;-66
2023/04/08 22:13:58;;;;;;;17.90;13.10;;;;;;;8.73;68.47;100664.91;220440;1256;140510;-70
2023/04/08 22:19:02;;;;;;;17.60;11.20;;;;;;;8.70;68.65;100662.45;220471;1259;140614;-68
2023/04/08 22:24:06;;;;;;;15.90;10.90;;;;;;;8.65;69.03;100658.90;219522;1260;140942;-69
2023/04/08 22:29:11;;;;;;;16.00;10.40;;;;;;;8.60;69.35;100657.05;219269;1257;142301;-68
2023/04/08 22:34:14;;;;;;;17.40;9.80;;;;;;;8.51;69.47;100654.95;217959;1257;140007;-70
2023/04/08 22:39:18;;;;;;;12.20;8.50;;;;;;;8.37;70.09;100654.02;217688;1259;140651;-67
2023/04/08 22:44:22;;;;;;;12.70;8.80;;;;;;;8.24;70.36;100654.63;218604;1257;141764;-67
2023/04/08 22:49:27;;;;;;;15.20;8.70;;;;;;;8.13;70.63;100652.70;217676;1257;140616;-69
2023/04/08 22:54:32;;;;;;;9.90;8.30;;;;;;;8.07;71.51;100654.33;218410;1257;141181;-69
2023/04/08 22:59:36;;;;;;;11.30;7.90;;;;;;;8.01;71.79;100650.37;217830;1258;140090;-69